sensor_id;sensor_type;location;lat;lon;timestamp;temperature;humidity
13186;DHT22;6658;53.080;7.428;2022-07-18T00:01:39;16.10;99.90
13186;DHT22;6658;53.080;7.428;2022-07-18T00:04:04;16.10;99.90
13186;DHT22;6658;53.080;7.428;2022-07-18T00:06:30;16.00;99.90
13186;DHT22;6658;53.080;7.428;2022-07-18T00:08:56;16.00;99.90
13186;DHT22;6658;53.080;7.428;2022-07-18T00:11:22;15.90;99.90
13186;DHT22;6658;53.080;7.428;2022-07-18T00:13:48;15.90;99.90
13186;DHT22;6658;53.080;7.428;2022-07-18T00:16:16;15.90;99.90
13186;DHT22;6658;53.080;7.428;2022-07-18T00:18:42;15.90;99.90
13186;DHT22;6658;53.080;7.428;2022-07-18T00:21:08;15.80;99.90
13186;DHT22;6658;53.080;7.428;2022-07-18T00:23:33;15.80;99.90
13186;DHT22;6658;53.080;7.428;2022-07-18T00:25:59;15.80;99.90
13186;DHT22;6658;53.080;7.428;2022-07-18T00:28:25;15.80;99.90
13186;DHT22;6658;53.080;7.428;2022-07-18T00:30:50;15.80;99.90
13186;DHT22;6658;53.080;7.428;2022-07-18T00:33:16;15.70;99.90
13186;DHT22;6658;53.080;7.428;2022-07-18T00:35:42;15.70;99.90
13186;DHT22;6658;53.080;7.428;2022-07-18T00:38:07;15.60;99.90
13186;DHT22;6658;53.080;7.428;2022-07-18T00:40:33;15.60;99.90
13186;DHT22;6658;53.080;7.428;2022-07-18T00:42:59;15.60;99.90
13186;DHT22;6658;53.080;7.428;2022-07-18T00:45:25;15.50;99.90
13186;DHT22;6658;53.080;7.428;2022-07-18T00:47:51;15.50;99.90
13186;DHT22;6658;53.080;7.428;2022-07-18T00:50:18;15.50;99.90
13186;DHT22;6658;53.080;7.428;2022-07-18T00:52:44;15.50;99.90
13186;DHT22;6658;53.080;7.428;2022-07-18T00:55:10;15.40;99.90
13186;DHT22;6658;53.080;7.428;2022-07-18T00:57:37;15.40;99.90
13186;DHT22;6658;53.080;7.428;2022-07-18T01:00:07;15.40;99.90
13186;DHT22;6658;53.080;7.428;2022-07-18T01:02:52;15.40;99.90
13186;DHT22;6658;53.080;7.428;2022-07-18T01:05:18;15.30;99.90
13186;DHT22;6658;53.080;7.428;2022-07-18T01:07:43;15.30;99.90
13186;DHT22;6658;53.080;7.428;2022-07-18T01:10:09;15.30;99.90
13186;DHT22;6658;53.080;7.428;2022-07-18T01:12:35;15.30;99.90
13186;DHT22;6658;53.080;7.428;2022-07-18T01:15:00;15.30;99.90
13186;DHT22;6658;53.080;7.428;2022-07-18T01:17:26;15.20;99.90
13186;DHT22;6658;53.080;7.428;2022-07-18T01:19:52;15.20;99.90
13186;DHT22;6658;53.080;7.428;2022-07-18T01:22:19;15.20;99.90
13186;DHT22;6658;53.080;7.428;2022-07-18T01:24:45;15.20;99.90
13186;DHT22;6658;53.080;7.428;2022-07-18T01:27:21;15.10;99.90
13186;DHT22;6658;53.080;7.428;2022-07-18T01:29:48;15.10;99.90
13186;DHT22;6658;53.080;7.428;2022-07-18T01:32:15;15.10;99.90
13186;DHT22;6658;53.080;7.428;2022-07-18T01:34:42;15.00;99.90
13186;DHT22;6658;53.080;7.428;2022-07-18T01:37:08;14.90;99.90
13186;DHT22;6658;53.080;7.428;2022-07-18T01:39:34;14.90;99.90
13186;DHT22;6658;53.080;7.428;2022-07-18T01:42:03;14.80;99.90
13186;DHT22;6658;53.080;7.428;2022-07-18T01:44:29;14.80;99.90
13186;DHT22;6658;53.080;7.428;2022-07-18T01:46:55;14.80;99.90
13186;DHT22;6658;53.080;7.428;2022-07-18T01:49:22;14.80;99.90
13186;DHT22;6658;53.080;7.428;2022-07-18T01:51:49;14.80;99.90
13186;DHT22;6658;53.080;7.428;2022-07-18T01:54:18;14.80;99.90
13186;DHT22;6658;53.080;7.428;2022-07-18T01:56:44;14.80;99.90
13186;DHT22;6658;53.080;7.428;2022-07-18T01:59:10;14.80;99.90
13186;DHT22;6658;53.080;7.428;2022-07-18T02:01:36;14.80;99.90
13186;DHT22;6658;53.080;7.428;2022-07-18T02:04:01;14.80;99.90
13186;DHT22;6658;53.080;7.428;2022-07-18T02:06:27;14.70;99.90
13186;DHT22;6658;53.080;7.428;2022-07-18T02:08:53;14.70;99.90
13186;DHT22;6658;53.080;7.428;2022-07-18T02:11:18;14.70;99.90
13186;DHT22;6658;53.080;7.428;2022-07-18T02:13:44;14.70;99.90
13186;DHT22;6658;53.080;7.428;2022-07-18T02:16:10;14.70;99.90
13186;DHT22;6658;53.080;7.428;2022-07-18T02:18:35;14.70;99.90
13186;DHT22;6658;53.080;7.428;2022-07-18T02:21:02;14.60;99.90
13186;DHT22;6658;53.080;7.428;2022-07-18T02:23:28;14.70;99.90
13186;DHT22;6658;53.080;7.428;2022-07-18T02:25:54;14.60;99.90
13186;DHT22;6658;53.080;7.428;2022-07-18T02:28:20;14.60;99.90
13186;DHT22;6658;53.080;7.428;2022-07-18T02:30:47;14.60;99.90
13186;DHT22;6658;53.080;7.428;2022-07-18T02:33:14;14.60;99.90
13186;DHT22;6658;53.080;7.428;2022-07-18T02:35:41;14.60;99.90
13186;DHT22;6658;53.080;7.428;2022-07-18T02:38:08;14.60;99.90
13186;DHT22;6658;53.080;7.428;2022-07-18T02:40:34;14.60;99.90
13186;DHT22;6658;53.080;7.428;2022-07-18T02:42:59;14.70;99.90
13186;DHT22;6658;53.080;7.428;2022-07-18T02:45:25;14.60;99.90
13186;DHT22;6658;53.080;7.428;2022-07-18T02:47:51;14.60;99.90
13186;DHT22;6658;53.080;7.428;2022-07-18T02:50:18;14.60;99.90
13186;DHT22;6658;53.080;7.428;2022-07-18T02:52:44;14.60;99.90
13186;DHT22;6658;53.080;7.428;2022-07-18T02:55:11;14.60;99.90
13186;DHT22;6658;53.080;7.428;2022-07-18T02:57:37;14.60;99.90
13186;DHT22;6658;53.080;7.428;2022-07-18T03:00:09;14.50;99.90
13186;DHT22;6658;53.080;7.428;2022-07-18T03:02:35;14.50;99.90
13186;DHT22;6658;53.080;7.428;2022-07-18T03:05:01;14.40;99.90
13186;DHT22;6658;53.080;7.428;2022-07-18T03:07:27;14.40;99.90
13186;DHT22;6658;53.080;7.428;2022-07-18T03:09:53;14.40;99.90
13186;DHT22;6658;53.080;7.428;2022-07-18T03:12:19;14.30;99.90
13186;DHT22;6658;53.080;7.428;2022-07-18T03:14:45;14.30;99.90
13186;DHT22;6658;53.080;7.428;2022-07-18T03:17:10;14.30;99.90
13186;DHT22;6658;53.080;7.428;2022-07-18T03:19:36;14.30;99.90
13186;DHT22;6658;53.080;7.428;2022-07-18T03:22:03;14.40;99.90
13186;DHT22;6658;53.080;7.428;2022-07-18T03:24:29;14.40;99.90
13186;DHT22;6658;53.080;7.428;2022-07-18T03:26:56;14.40;99.90
13186;DHT22;6658;53.080;7.428;2022-07-18T03:29:22;14.40;99.90
13186;DHT22;6658;53.080;7.428;2022-07-18T03:31:48;14.40;99.90
13186;DHT22;6658;53.080;7.428;2022-07-18T03:34:13;14.40;99.90
13186;DHT22;6658;53.080;7.428;2022-07-18T03:36:39;14.40;99.90
13186;DHT22;6658;53.080;7.428;2022-07-18T03:39:06;14.40;99.90
13186;DHT22;6658;53.080;7.428;2022-07-18T03:41:32;14.40;99.90
13186;DHT22;6658;53.080;7.428;2022-07-18T03:43:58;14.40;99.90
13186;DHT22;6658;53.080;7.428;2022-07-18T03:46:23;14.30;99.90
13186;DHT22;6658;53.080;7.428;2022-07-18T03:48:49;14.40;99.90
13186;DHT22;6658;53.080;7.428;2022-07-18T03:51:15;14.40;99.90
13186;DHT22;6658;53.080;7.428;2022-07-18T03:53:41;14.40;99.90
13186;DHT22;6658;53.080;7.428;2022-07-18T03:56:07;14.50;99.90
13186;DHT22;6658;53.080;7.428;2022-07-18T03:58:32;14.50;99.90
13186;DHT22;6658;53.080;7.428;2022-07-18T04:00:58;14.60;99.90
13186;DHT22;6658;53.080;7.428;2022-07-18T04:03:24;14.60;99.90
13186;DHT22;6658;53.080;7.428;2022-07-18T04:05:50;14.70;99.90
13186;DHT22;6658;53.080;7.428;2022-07-18T04:08:16;14.70;99.90
13186;DHT22;6658;53.080;7.428;2022-07-18T04:10:41;14.80;99.90
13186;DHT22;6658;53.080;7.428;2022-07-18T04:13:08;14.90;99.90
13186;DHT22;6658;53.080;7.428;2022-07-18T04:15:35;15.00;99.90
13186;DHT22;6658;53.080;7.428;2022-07-18T04:18:01;15.10;99.90
13186;DHT22;6658;53.080;7.428;2022-07-18T04:20:27;15.20;99.90
13186;DHT22;6658;53.080;7.428;2022-07-18T04:22:55;15.30;99.90
13186;DHT22;6658;53.080;7.428;2022-07-18T04:25:25;15.30;99.90
13186;DHT22;6658;53.080;7.428;2022-07-18T04:27:51;15.40;99.90
13186;DHT22;6658;53.080;7.428;2022-07-18T04:30:20;15.50;99.90
13186;DHT22;6658;53.080;7.428;2022-07-18T04:32:47;15.60;99.90
13186;DHT22;6658;53.080;7.428;2022-07-18T04:35:12;15.70;99.90
13186;DHT22;6658;53.080;7.428;2022-07-18T04:37:39;15.90;99.90
13186;DHT22;6658;53.080;7.428;2022-07-18T04:40:06;16.10;99.90
13186;DHT22;6658;53.080;7.428;2022-07-18T04:42:32;16.60;99.90
13186;DHT22;6658;53.080;7.428;2022-07-18T04:44:58;16.80;99.90
13186;DHT22;6658;53.080;7.428;2022-07-18T04:47:27;17.00;99.90
13186;DHT22;6658;53.080;7.428;2022-07-18T04:49:54;17.20;99.90
13186;DHT22;6658;53.080;7.428;2022-07-18T04:52:20;17.40;99.90
13186;DHT22;6658;53.080;7.428;2022-07-18T04:54:45;17.60;99.90
13186;DHT22;6658;53.080;7.428;2022-07-18T04:57:11;17.80;99.90
13186;DHT22;6658;53.080;7.428;2022-07-18T04:59:42;17.90;99.90
13186;DHT22;6658;53.080;7.428;2022-07-18T05:02:09;17.90;99.90
13186;DHT22;6658;53.080;7.428;2022-07-18T05:04:35;17.90;99.90
13186;DHT22;6658;53.080;7.428;2022-07-18T05:07:01;17.90;99.90
13186;DHT22;6658;53.080;7.428;2022-07-18T05:09:27;17.90;99.90
13186;DHT22;6658;53.080;7.428;2022-07-18T05:11:54;18.00;99.90
13186;DHT22;6658;53.080;7.428;2022-07-18T05:14:19;17.90;99.90
13186;DHT22;6658;53.080;7.428;2022-07-18T05:16:46;18.00;99.90
13186;DHT22;6658;53.080;7.428;2022-07-18T05:19:12;18.10;99.90
13186;DHT22;6658;53.080;7.428;2022-07-18T05:21:38;18.30;99.90
13186;DHT22;6658;53.080;7.428;2022-07-18T05:24:04;18.50;99.90
13186;DHT22;6658;53.080;7.428;2022-07-18T05:26:29;18.70;99.90
13186;DHT22;6658;53.080;7.428;2022-07-18T05:28:55;18.80;99.90
13186;DHT22;6658;53.080;7.428;2022-07-18T05:31:21;18.80;99.90
13186;DHT22;6658;53.080;7.428;2022-07-18T05:33:46;18.90;99.90
13186;DHT22;6658;53.080;7.428;2022-07-18T05:36:12;19.00;99.90
13186;DHT22;6658;53.080;7.428;2022-07-18T05:38:38;19.00;99.90
13186;DHT22;6658;53.080;7.428;2022-07-18T05:41:03;18.90;99.90
13186;DHT22;6658;53.080;7.428;2022-07-18T05:43:29;18.90;99.90
13186;DHT22;6658;53.080;7.428;2022-07-18T05:45:55;18.90;99.90
13186;DHT22;6658;53.080;7.428;2022-07-18T05:48:20;19.00;99.90
13186;DHT22;6658;53.080;7.428;2022-07-18T05:50:46;19.10;99.90
13186;DHT22;6658;53.080;7.428;2022-07-18T05:53:12;19.10;99.90
13186;DHT22;6658;53.080;7.428;2022-07-18T05:55:38;19.20;99.90
13186;DHT22;6658;53.080;7.428;2022-07-18T05:58:04;19.30;99.90
13186;DHT22;6658;53.080;7.428;2022-07-18T06:00:30;19.40;99.90
13186;DHT22;6658;53.080;7.428;2022-07-18T06:02:56;19.60;99.90
13186;DHT22;6658;53.080;7.428;2022-07-18T06:05:22;19.70;99.90
13186;DHT22;6658;53.080;7.428;2022-07-18T06:07:47;19.80;99.90
13186;DHT22;6658;53.080;7.428;2022-07-18T06:10:13;19.90;99.90
13186;DHT22;6658;53.080;7.428;2022-07-18T06:12:39;20.10;99.90
13186;DHT22;6658;53.080;7.428;2022-07-18T06:15:05;20.20;99.90
13186;DHT22;6658;53.080;7.428;2022-07-18T06:17:32;20.30;99.90
13186;DHT22;6658;53.080;7.428;2022-07-18T06:19:58;20.40;99.90
13186;DHT22;6658;53.080;7.428;2022-07-18T06:22:24;20.60;99.90
13186;DHT22;6658;53.080;7.428;2022-07-18T06:24:51;20.60;99.90
13186;DHT22;6658;53.080;7.428;2022-07-18T06:27:16;20.70;99.90
13186;DHT22;6658;53.080;7.428;2022-07-18T06:29:42;20.70;99.90
13186;DHT22;6658;53.080;7.428;2022-07-18T06:32:08;20.70;99.90
13186;DHT22;6658;53.080;7.428;2022-07-18T06:34:33;20.80;99.90
13186;DHT22;6658;53.080;7.428;2022-07-18T06:36:59;20.80;99.90
13186;DHT22;6658;53.080;7.428;2022-07-18T06:39:25;20.80;99.90
13186;DHT22;6658;53.080;7.428;2022-07-18T06:41:51;20.90;99.90
13186;DHT22;6658;53.080;7.428;2022-07-18T06:44:16;20.90;99.90
13186;DHT22;6658;53.080;7.428;2022-07-18T06:46:42;21.00;99.90
13186;DHT22;6658;53.080;7.428;2022-07-18T06:49:08;21.20;99.90
13186;DHT22;6658;53.080;7.428;2022-07-18T06:51:34;21.40;99.90
13186;DHT22;6658;53.080;7.428;2022-07-18T06:54:00;21.50;99.90
13186;DHT22;6658;53.080;7.428;2022-07-18T06:56:26;21.60;99.90
13186;DHT22;6658;53.080;7.428;2022-07-18T06:58:52;21.60;99.90
13186;DHT22;6658;53.080;7.428;2022-07-18T07:01:19;21.70;99.90
13186;DHT22;6658;53.080;7.428;2022-07-18T07:03:46;21.80;99.90
13186;DHT22;6658;53.080;7.428;2022-07-18T07:06:12;21.90;99.90
13186;DHT22;6658;53.080;7.428;2022-07-18T07:08:38;21.90;99.90
13186;DHT22;6658;53.080;7.428;2022-07-18T07:11:04;21.80;99.90
13186;DHT22;6658;53.080;7.428;2022-07-18T07:13:31;21.80;99.90
13186;DHT22;6658;53.080;7.428;2022-07-18T07:15:57;21.80;99.90
13186;DHT22;6658;53.080;7.428;2022-07-18T07:18:22;21.90;99.90
13186;DHT22;6658;53.080;7.428;2022-07-18T07:20:48;22.10;99.90
13186;DHT22;6658;53.080;7.428;2022-07-18T07:23:14;22.30;99.90
13186;DHT22;6658;53.080;7.428;2022-07-18T07:25:40;22.50;99.90
13186;DHT22;6658;53.080;7.428;2022-07-18T07:28:06;22.80;99.90
13186;DHT22;6658;53.080;7.428;2022-07-18T07:30:33;23.10;99.90
13186;DHT22;6658;53.080;7.428;2022-07-18T07:32:59;23.50;99.90
13186;DHT22;6658;53.080;7.428;2022-07-18T07:35:25;23.70;99.90
13186;DHT22;6658;53.080;7.428;2022-07-18T07:37:54;23.80;99.90
13186;DHT22;6658;53.080;7.428;2022-07-18T07:40:20;24.00;99.90
13186;DHT22;6658;53.080;7.428;2022-07-18T07:42:46;24.10;99.80
13186;DHT22;6658;53.080;7.428;2022-07-18T07:45:13;24.20;98.90
13186;DHT22;6658;53.080;7.428;2022-07-18T07:47:39;24.30;99.10
13186;DHT22;6658;53.080;7.428;2022-07-18T07:50:06;24.40;99.10
13186;DHT22;6658;53.080;7.428;2022-07-18T07:52:32;24.60;98.60
13186;DHT22;6658;53.080;7.428;2022-07-18T07:54:58;24.90;98.20
13186;DHT22;6658;53.080;7.428;2022-07-18T07:57:24;25.30;97.50
13186;DHT22;6658;53.080;7.428;2022-07-18T07:59:49;26.10;96.50
13186;DHT22;6658;53.080;7.428;2022-07-18T08:02:16;26.70;95.50
13186;DHT22;6658;53.080;7.428;2022-07-18T08:04:42;27.20;93.10
13186;DHT22;6658;53.080;7.428;2022-07-18T08:07:08;27.70;92.70
13186;DHT22;6658;53.080;7.428;2022-07-18T08:09:34;28.10;91.90
13186;DHT22;6658;53.080;7.428;2022-07-18T08:12:00;28.60;91.90
13186;DHT22;6658;53.080;7.428;2022-07-18T08:14:25;28.90;90.60
13186;DHT22;6658;53.080;7.428;2022-07-18T08:16:51;28.90;88.80
13186;DHT22;6658;53.080;7.428;2022-07-18T08:19:17;29.20;87.00
13186;DHT22;6658;53.080;7.428;2022-07-18T08:21:43;29.50;85.70
13186;DHT22;6658;53.080;7.428;2022-07-18T08:24:08;29.40;86.50
13186;DHT22;6658;53.080;7.428;2022-07-18T08:26:34;29.40;87.50
13186;DHT22;6658;53.080;7.428;2022-07-18T08:29:02;29.40;85.80
13186;DHT22;6658;53.080;7.428;2022-07-18T08:31:28;29.60;85.50
13186;DHT22;6658;53.080;7.428;2022-07-18T08:33:54;29.70;84.60
13186;DHT22;6658;53.080;7.428;2022-07-18T08:36:20;30.20;82.80
13186;DHT22;6658;53.080;7.428;2022-07-18T08:38:46;30.40;80.70
13186;DHT22;6658;53.080;7.428;2022-07-18T08:41:11;30.50;79.40
13186;DHT22;6658;53.080;7.428;2022-07-18T08:43:38;30.80;75.80
13186;DHT22;6658;53.080;7.428;2022-07-18T08:46:05;31.50;75.80
13186;DHT22;6658;53.080;7.428;2022-07-18T08:48:31;31.80;73.60
13186;DHT22;6658;53.080;7.428;2022-07-18T08:50:59;31.60;72.20
13186;DHT22;6658;53.080;7.428;2022-07-18T08:53:25;31.30;72.80
13186;DHT22;6658;53.080;7.428;2022-07-18T08:55:51;31.10;73.10
13186;DHT22;6658;53.080;7.428;2022-07-18T08:58:17;30.90;74.40
13186;DHT22;6658;53.080;7.428;2022-07-18T09:00:44;31.00;73.40
13186;DHT22;6658;53.080;7.428;2022-07-18T09:03:10;31.60;70.70
13186;DHT22;6658;53.080;7.428;2022-07-18T09:05:36;32.10;71.10
13186;DHT22;6658;53.080;7.428;2022-07-18T09:08:12;32.10;67.40
13186;DHT22;6658;53.080;7.428;2022-07-18T09:10:51;32.10;69.60
13186;DHT22;6658;53.080;7.428;2022-07-18T09:13:18;32.20;70.40
13186;DHT22;6658;53.080;7.428;2022-07-18T09:15:58;32.50;68.40
13186;DHT22;6658;53.080;7.428;2022-07-18T09:18:34;32.70;66.20
13186;DHT22;6658;53.080;7.428;2022-07-18T09:21:20;32.90;66.00
13186;DHT22;6658;53.080;7.428;2022-07-18T09:23:48;32.90;66.20
13186;DHT22;6658;53.080;7.428;2022-07-18T09:26:34;32.80;63.30
13186;DHT22;6658;53.080;7.428;2022-07-18T09:29:03;32.60;66.70
13186;DHT22;6658;53.080;7.428;2022-07-18T09:31:29;32.30;65.30
13186;DHT22;6658;53.080;7.428;2022-07-18T09:33:55;31.90;65.50
13186;DHT22;6658;53.080;7.428;2022-07-18T09:36:22;31.60;65.90
13186;DHT22;6658;53.080;7.428;2022-07-18T09:38:48;31.10;64.90
13186;DHT22;6658;53.080;7.428;2022-07-18T09:41:14;30.80;65.50
13186;DHT22;6658;53.080;7.428;2022-07-18T09:43:41;30.60;67.70
13186;DHT22;6658;53.080;7.428;2022-07-18T09:46:07;30.20;69.80
13186;DHT22;6658;53.080;7.428;2022-07-18T09:48:34;30.00;68.80
13186;DHT22;6658;53.080;7.428;2022-07-18T09:51:07;29.80;70.50
13186;DHT22;6658;53.080;7.428;2022-07-18T09:53:38;29.70;67.80
13186;DHT22;6658;53.080;7.428;2022-07-18T09:56:11;29.70;70.60
13186;DHT22;6658;53.080;7.428;2022-07-18T09:58:42;29.70;70.30
13186;DHT22;6658;53.080;7.428;2022-07-18T10:01:14;29.70;73.30
13186;DHT22;6658;53.080;7.428;2022-07-18T10:03:40;29.80;71.30
13186;DHT22;6658;53.080;7.428;2022-07-18T10:06:05;29.90;72.80
13186;DHT22;6658;53.080;7.428;2022-07-18T10:08:32;30.00;73.00
13186;DHT22;6658;53.080;7.428;2022-07-18T10:11:00;30.30;70.20
13186;DHT22;6658;53.080;7.428;2022-07-18T10:13:29;30.60;71.10
13186;DHT22;6658;53.080;7.428;2022-07-18T10:15:55;30.70;70.30
13186;DHT22;6658;53.080;7.428;2022-07-18T10:18:24;31.00;70.30
13186;DHT22;6658;53.080;7.428;2022-07-18T10:26:21;31.60;69.00
13186;DHT22;6658;53.080;7.428;2022-07-18T10:31:28;32.30;63.90
13186;DHT22;6658;53.080;7.428;2022-07-18T10:36:33;32.60;67.20
13186;DHT22;6658;53.080;7.428;2022-07-18T10:47:04;34.00;61.90
13186;DHT22;6658;53.080;7.428;2022-07-18T10:57:41;35.10;58.40
13186;DHT22;6658;53.080;7.428;2022-07-18T11:00:11;34.70;58.70
13186;DHT22;6658;53.080;7.428;2022-07-18T11:02:47;34.30;59.70
13186;DHT22;6658;53.080;7.428;2022-07-18T11:13:41;33.70;59.70
13186;DHT22;6658;53.080;7.428;2022-07-18T11:16:36;33.70;61.50
13186;DHT22;6658;53.080;7.428;2022-07-18T11:24:04;34.20;60.20
13186;DHT22;6658;53.080;7.428;2022-07-18T11:26:34;34.40;59.00
13186;DHT22;6658;53.080;7.428;2022-07-18T11:29:04;34.90;58.20
13186;DHT22;6658;53.080;7.428;2022-07-18T11:31:31;34.80;58.70
13186;DHT22;6658;53.080;7.428;2022-07-18T11:33:59;34.90;59.20
13186;DHT22;6658;53.080;7.428;2022-07-18T11:36:31;35.10;57.50
13186;DHT22;6658;53.080;7.428;2022-07-18T11:39:02;35.60;57.00
13186;DHT22;6658;53.080;7.428;2022-07-18T11:41:28;35.30;58.10
13186;DHT22;6658;53.080;7.428;2022-07-18T11:43:55;35.70;57.70
13186;DHT22;6658;53.080;7.428;2022-07-18T11:46:23;36.00;54.80
13186;DHT22;6658;53.080;7.428;2022-07-18T11:49:01;36.00;56.30
13186;DHT22;6658;53.080;7.428;2022-07-18T11:51:34;35.90;53.60
13186;DHT22;6658;53.080;7.428;2022-07-18T11:54:01;35.90;54.00
13186;DHT22;6658;53.080;7.428;2022-07-18T11:56:26;35.80;55.20
13186;DHT22;6658;53.080;7.428;2022-07-18T11:58:52;36.10;53.20
13186;DHT22;6658;53.080;7.428;2022-07-18T12:01:18;36.50;53.70
13186;DHT22;6658;53.080;7.428;2022-07-18T12:03:46;36.90;53.50
13186;DHT22;6658;53.080;7.428;2022-07-18T12:06:21;36.90;51.40
13186;DHT22;6658;53.080;7.428;2022-07-18T12:08:48;37.20;52.10
13186;DHT22;6658;53.080;7.428;2022-07-18T12:17:04;37.30;49.70
13186;DHT22;6658;53.080;7.428;2022-07-18T12:19:12;36.70;51.20
13186;DHT22;6658;53.080;7.428;2022-07-18T12:24:18;35.90;50.70
13186;DHT22;6658;53.080;7.428;2022-07-18T12:26:44;35.90;50.50
13186;DHT22;6658;53.080;7.428;2022-07-18T12:29:10;35.70;52.20
13186;DHT22;6658;53.080;7.428;2022-07-18T12:34:16;35.30;50.70
13186;DHT22;6658;53.080;7.428;2022-07-18T12:36:54;34.80;50.90
13186;DHT22;6658;53.080;7.428;2022-07-18T12:39:30;33.90;51.40
13186;DHT22;6658;53.080;7.428;2022-07-18T12:41:57;32.90;52.80
13186;DHT22;6658;53.080;7.428;2022-07-18T12:44:24;32.50;56.10
13186;DHT22;6658;53.080;7.428;2022-07-18T12:46:50;32.30;54.00
13186;DHT22;6658;53.080;7.428;2022-07-18T12:49:16;32.10;54.40
13186;DHT22;6658;53.080;7.428;2022-07-18T12:51:41;32.10;56.20
13186;DHT22;6658;53.080;7.428;2022-07-18T12:54:07;32.10;55.00
13186;DHT22;6658;53.080;7.428;2022-07-18T12:56:34;32.00;55.60
13186;DHT22;6658;53.080;7.428;2022-07-18T12:59:00;32.00;55.90
13186;DHT22;6658;53.080;7.428;2022-07-18T13:01:26;32.00;56.00
13186;DHT22;6658;53.080;7.428;2022-07-18T13:03:52;31.90;54.80
13186;DHT22;6658;53.080;7.428;2022-07-18T13:06:17;31.70;54.40
13186;DHT22;6658;53.080;7.428;2022-07-18T13:08:43;31.50;55.70
13186;DHT22;6658;53.080;7.428;2022-07-18T13:11:09;31.40;56.70
13186;DHT22;6658;53.080;7.428;2022-07-18T13:13:35;31.40;55.60
13186;DHT22;6658;53.080;7.428;2022-07-18T13:16:00;31.40;55.80
13186;DHT22;6658;53.080;7.428;2022-07-18T13:18:26;31.40;56.10
13186;DHT22;6658;53.080;7.428;2022-07-18T13:20:52;31.40;55.70
13186;DHT22;6658;53.080;7.428;2022-07-18T13:23:17;31.30;57.50
13186;DHT22;6658;53.080;7.428;2022-07-18T13:25:44;31.30;56.00
13186;DHT22;6658;53.080;7.428;2022-07-18T13:28:10;31.20;55.20
13186;DHT22;6658;53.080;7.428;2022-07-18T13:30:35;31.00;55.90
13186;DHT22;6658;53.080;7.428;2022-07-18T13:33:03;30.90;55.00
13186;DHT22;6658;53.080;7.428;2022-07-18T13:35:29;30.80;56.10
13186;DHT22;6658;53.080;7.428;2022-07-18T13:37:54;30.80;56.70
13186;DHT22;6658;53.080;7.428;2022-07-18T13:40:20;30.70;54.70
13186;DHT22;6658;53.080;7.428;2022-07-18T13:42:46;30.60;56.30
13186;DHT22;6658;53.080;7.428;2022-07-18T13:45:12;30.60;56.90
13186;DHT22;6658;53.080;7.428;2022-07-18T13:47:39;30.60;55.80
13186;DHT22;6658;53.080;7.428;2022-07-18T13:50:07;30.60;55.50
13186;DHT22;6658;53.080;7.428;2022-07-18T13:52:33;30.60;56.60
13186;DHT22;6658;53.080;7.428;2022-07-18T13:54:59;30.60;56.70
13186;DHT22;6658;53.080;7.428;2022-07-18T13:57:25;30.50;56.40
13186;DHT22;6658;53.080;7.428;2022-07-18T13:59:50;30.70;57.30
13186;DHT22;6658;53.080;7.428;2022-07-18T14:02:17;30.90;56.20
13186;DHT22;6658;53.080;7.428;2022-07-18T14:04:44;31.10;55.70
13186;DHT22;6658;53.080;7.428;2022-07-18T14:07:09;31.20;56.80
13186;DHT22;6658;53.080;7.428;2022-07-18T14:09:37;31.40;56.10
13186;DHT22;6658;53.080;7.428;2022-07-18T14:12:04;31.60;57.50
13186;DHT22;6658;53.080;7.428;2022-07-18T14:14:29;31.70;56.20
13186;DHT22;6658;53.080;7.428;2022-07-18T14:16:55;31.80;55.60
13186;DHT22;6658;53.080;7.428;2022-07-18T14:19:21;31.90;56.30
13186;DHT22;6658;53.080;7.428;2022-07-18T14:21:47;31.90;56.10
13186;DHT22;6658;53.080;7.428;2022-07-18T14:24:12;31.90;56.10
13186;DHT22;6658;53.080;7.428;2022-07-18T14:26:38;31.70;55.70
13186;DHT22;6658;53.080;7.428;2022-07-18T14:29:04;31.60;56.90
13186;DHT22;6658;53.080;7.428;2022-07-18T14:31:29;31.50;56.90
13186;DHT22;6658;53.080;7.428;2022-07-18T14:33:55;31.40;55.60
13186;DHT22;6658;53.080;7.428;2022-07-18T14:36:21;31.40;56.30
13186;DHT22;6658;53.080;7.428;2022-07-18T14:38:46;31.30;55.70
13186;DHT22;6658;53.080;7.428;2022-07-18T14:41:12;31.20;56.10
13186;DHT22;6658;53.080;7.428;2022-07-18T14:43:38;31.20;56.30
13186;DHT22;6658;53.080;7.428;2022-07-18T14:46:04;31.20;57.00
13186;DHT22;6658;53.080;7.428;2022-07-18T14:48:30;31.20;57.30
13186;DHT22;6658;53.080;7.428;2022-07-18T14:50:55;31.30;56.70
13186;DHT22;6658;53.080;7.428;2022-07-18T14:53:21;31.40;56.50
13186;DHT22;6658;53.080;7.428;2022-07-18T14:55:47;31.30;55.10
13186;DHT22;6658;53.080;7.428;2022-07-18T14:58:13;31.30;55.80
13186;DHT22;6658;53.080;7.428;2022-07-18T15:00:38;31.40;56.30
13186;DHT22;6658;53.080;7.428;2022-07-18T15:03:04;31.30;55.80
13186;DHT22;6658;53.080;7.428;2022-07-18T15:05:30;31.20;56.10
13186;DHT22;6658;53.080;7.428;2022-07-18T15:07:55;31.20;56.00
13186;DHT22;6658;53.080;7.428;2022-07-18T15:10:21;31.00;55.70
13186;DHT22;6658;53.080;7.428;2022-07-18T15:12:47;30.80;56.10
13186;DHT22;6658;53.080;7.428;2022-07-18T15:15:12;30.70;57.90
13186;DHT22;6658;53.080;7.428;2022-07-18T15:17:38;30.70;57.60
13186;DHT22;6658;53.080;7.428;2022-07-18T15:20:05;30.80;58.40
13186;DHT22;6658;53.080;7.428;2022-07-18T15:22:31;30.70;57.80
13186;DHT22;6658;53.080;7.428;2022-07-18T15:24:57;30.70;56.80
13186;DHT22;6658;53.080;7.428;2022-07-18T15:27:23;30.50;57.10
13186;DHT22;6658;53.080;7.428;2022-07-18T15:29:48;30.40;56.10
13186;DHT22;6658;53.080;7.428;2022-07-18T15:32:14;30.30;56.90
13186;DHT22;6658;53.080;7.428;2022-07-18T15:34:40;30.10;55.80
13186;DHT22;6658;53.080;7.428;2022-07-18T15:37:07;30.00;57.50
13186;DHT22;6658;53.080;7.428;2022-07-18T15:39:33;29.90;57.40
13186;DHT22;6658;53.080;7.428;2022-07-18T15:42:00;30.00;57.30
13186;DHT22;6658;53.080;7.428;2022-07-18T15:44:26;30.20;58.00
13186;DHT22;6658;53.080;7.428;2022-07-18T15:46:52;30.20;58.60
13186;DHT22;6658;53.080;7.428;2022-07-18T15:49:18;30.40;58.50
13186;DHT22;6658;53.080;7.428;2022-07-18T15:51:44;30.40;58.20
13186;DHT22;6658;53.080;7.428;2022-07-18T15:54:16;30.50;58.60
13186;DHT22;6658;53.080;7.428;2022-07-18T15:56:42;30.60;59.80
13186;DHT22;6658;53.080;7.428;2022-07-18T15:59:08;30.60;58.50
13186;DHT22;6658;53.080;7.428;2022-07-18T16:01:34;30.70;58.70
13186;DHT22;6658;53.080;7.428;2022-07-18T16:04:00;30.70;59.50
13186;DHT22;6658;53.080;7.428;2022-07-18T16:06:25;30.80;58.20
13186;DHT22;6658;53.080;7.428;2022-07-18T16:08:51;30.70;58.30
13186;DHT22;6658;53.080;7.428;2022-07-18T16:11:17;30.80;59.40
13186;DHT22;6658;53.080;7.428;2022-07-18T16:13:43;30.80;57.90
13186;DHT22;6658;53.080;7.428;2022-07-18T16:16:08;30.80;59.70
13186;DHT22;6658;53.080;7.428;2022-07-18T16:18:34;30.80;59.10
13186;DHT22;6658;53.080;7.428;2022-07-18T16:21:00;30.70;61.40
13186;DHT22;6658;53.080;7.428;2022-07-18T16:23:25;30.70;61.50
13186;DHT22;6658;53.080;7.428;2022-07-18T16:25:51;30.70;59.60
13186;DHT22;6658;53.080;7.428;2022-07-18T16:28:17;30.70;58.70
13186;DHT22;6658;53.080;7.428;2022-07-18T16:30:42;30.50;58.20
13186;DHT22;6658;53.080;7.428;2022-07-18T16:33:08;30.40;58.70